METAR Data
IDs: Format: Raw Decoded Include TAF

Data at: 2148 UTC 18 Apr 2021

KHAI 182135Z AUTO 32005KT 10SM OVC090 15/M02 A2986 RMK AO2 T01501018